< < Back
Terminal Aerodrome Forecast


Current Version              Previous Versions:   1  2  3  4  5  6  7  8  9  

Terminal Aerodrome Forecast

519
FTUS42 KCAE 162000 AAA
TAFCAE
TAF AMD
KCAE 162046Z 1621/1718 VRB03KT P6SM SCT050
     FM170600 VRB03KT 4SM BR SCT025
     FM171000 VRB03KT 1SM BR OVC006
     FM171300 03004KT P6SM BKN015=



Latest METAR

429
SAUS80 KWBC 170100 RRA
MTRCAE
METAR KCAE 170056Z 13004KT 10SM SCT050 27/21 A2995 RMK AO2 SLP139 OCNL
LTGICCC DSNT NW T02670211


USA.gov is the U.S. government's official web portal to all federal, state and local government web resources and services.